sensor_id;sensor_type;location;lat;lon;timestamp;P1;durP1;ratioP1;P2;durP2;ratioP2
19897;SDS011;10111;50.814;4.572;2023-06-04T00:01:53;20.07;;;2.40;;
19897;SDS011;10111;50.814;4.572;2023-06-04T00:04:19;7.47;;;2.20;;
19897;SDS011;10111;50.814;4.572;2023-06-04T00:06:45;3.43;;;1.60;;
19897;SDS011;10111;50.814;4.572;2023-06-04T00:09:10;1.30;;;1.03;;
19897;SDS011;10111;50.814;4.572;2023-06-04T00:11:36;5.27;;;1.37;;
19897;SDS011;10111;50.814;4.572;2023-06-04T00:14:02;14.10;;;2.70;;
19897;SDS011;10111;50.814;4.572;2023-06-04T00:16:28;1.20;;;1.10;;
19897;SDS011;10111;50.814;4.572;2023-06-04T00:18:54;1.33;;;1.10;;
19897;SDS011;10111;50.814;4.572;2023-06-04T00:21:19;1.33;;;1.23;;
19897;SDS011;10111;50.814;4.572;2023-06-04T00:23:45;1.70;;;1.23;;
19897;SDS011;10111;50.814;4.572;2023-06-04T00:26:11;3.77;;;1.23;;
19897;SDS011;10111;50.814;4.572;2023-06-04T00:28:36;2.17;;;1.43;;
19897;SDS011;10111;50.814;4.572;2023-06-04T00:31:04;1.13;;;1.03;;
19897;SDS011;10111;50.814;4.572;2023-06-04T00:33:31;2.70;;;1.17;;
19897;SDS011;10111;50.814;4.572;2023-06-04T00:35:57;1.47;;;1.17;;
19897;SDS011;10111;50.814;4.572;2023-06-04T00:38:22;1.53;;;1.30;;
19897;SDS011;10111;50.814;4.572;2023-06-04T00:40:48;4.20;;;1.37;;
19897;SDS011;10111;50.814;4.572;2023-06-04T00:43:14;2.23;;;1.47;;
19897;SDS011;10111;50.814;4.572;2023-06-04T00:45:40;1.47;;;1.37;;
19897;SDS011;10111;50.814;4.572;2023-06-04T00:48:07;1.73;;;1.20;;
19897;SDS011;10111;50.814;4.572;2023-06-04T00:50:33;1.37;;;1.00;;
19897;SDS011;10111;50.814;4.572;2023-06-04T00:53:00;1.40;;;1.30;;
19897;SDS011;10111;50.814;4.572;2023-06-04T00:55:26;1.77;;;1.27;;
19897;SDS011;10111;50.814;4.572;2023-06-04T00:57:53;2.30;;;1.37;;
19897;SDS011;10111;50.814;4.572;2023-06-04T01:00:18;2.50;;;1.20;;
19897;SDS011;10111;50.814;4.572;2023-06-04T01:02:45;1.77;;;1.40;;
19897;SDS011;10111;50.814;4.572;2023-06-04T01:08:01;1.70;;;1.57;;
19897;SDS011;10111;50.814;4.572;2023-06-04T01:10:27;2.43;;;1.43;;
19897;SDS011;10111;50.814;4.572;2023-06-04T01:12:53;1.33;;;1.20;;
19897;SDS011;10111;50.814;4.572;2023-06-04T01:15:19;1.40;;;1.30;;
19897;SDS011;10111;50.814;4.572;2023-06-04T01:17:46;1.50;;;1.10;;
19897;SDS011;10111;50.814;4.572;2023-06-04T01:23:16;1.60;;;1.30;;
19897;SDS011;10111;50.814;4.572;2023-06-04T01:25:54;2.97;;;1.60;;
19897;SDS011;10111;50.814;4.572;2023-06-04T01:28:22;1.40;;;1.30;;
19897;SDS011;10111;50.814;4.572;2023-06-04T01:30:48;1.77;;;1.47;;
19897;SDS011;10111;50.814;4.572;2023-06-04T01:33:17;3.23;;;1.40;;
19897;SDS011;10111;50.814;4.572;2023-06-04T01:35:44;1.50;;;1.30;;
19897;SDS011;10111;50.814;4.572;2023-06-04T01:38:10;1.97;;;1.50;;
19897;SDS011;10111;50.814;4.572;2023-06-04T01:40:36;2.03;;;1.33;;
19897;SDS011;10111;50.814;4.572;2023-06-04T01:43:02;2.97;;;1.80;;
19897;SDS011;10111;50.814;4.572;2023-06-04T01:45:28;1.70;;;1.37;;
19897;SDS011;10111;50.814;4.572;2023-06-04T01:47:54;2.33;;;1.80;;
19897;SDS011;10111;50.814;4.572;2023-06-04T01:50:20;2.70;;;1.90;;
19897;SDS011;10111;50.814;4.572;2023-06-04T01:52:46;4.67;;;1.50;;
19897;SDS011;10111;50.814;4.572;2023-06-04T01:55:13;2.23;;;1.40;;
19897;SDS011;10111;50.814;4.572;2023-06-04T01:57:41;2.23;;;1.43;;
19897;SDS011;10111;50.814;4.572;2023-06-04T02:00:09;2.97;;;1.80;;
19897;SDS011;10111;50.814;4.572;2023-06-04T02:02:35;1.93;;;1.67;;
19897;SDS011;10111;50.814;4.572;2023-06-04T02:05:05;2.47;;;1.57;;
19897;SDS011;10111;50.814;4.572;2023-06-04T02:07:37;3.27;;;1.30;;
19897;SDS011;10111;50.814;4.572;2023-06-04T02:10:07;3.27;;;1.70;;
19897;SDS011;10111;50.814;4.572;2023-06-04T02:12:36;1.93;;;1.67;;
19897;SDS011;10111;50.814;4.572;2023-06-04T02:15:03;5.20;;;2.10;;
19897;SDS011;10111;50.814;4.572;2023-06-04T02:17:30;2.47;;;2.00;;
19897;SDS011;10111;50.814;4.572;2023-06-04T02:19:57;1.80;;;1.47;;
19897;SDS011;10111;50.814;4.572;2023-06-04T02:22:24;3.70;;;1.90;;
19897;SDS011;10111;50.814;4.572;2023-06-04T02:24:50;6.13;;;2.20;;
19897;SDS011;10111;50.814;4.572;2023-06-04T02:27:16;4.57;;;1.67;;
19897;SDS011;10111;50.814;4.572;2023-06-04T02:29:42;3.57;;;2.00;;
19897;SDS011;10111;50.814;4.572;2023-06-04T02:32:08;2.60;;;1.93;;
19897;SDS011;10111;50.814;4.572;2023-06-04T02:34:34;2.40;;;1.83;;
19897;SDS011;10111;50.814;4.572;2023-06-04T02:37:00;4.17;;;1.93;;
19897;SDS011;10111;50.814;4.572;2023-06-04T02:39:27;2.33;;;2.07;;
19897;SDS011;10111;50.814;4.572;2023-06-04T02:41:52;3.63;;;2.57;;
19897;SDS011;10111;50.814;4.572;2023-06-04T02:44:18;4.40;;;2.57;;
19897;SDS011;10111;50.814;4.572;2023-06-04T02:46:44;4.50;;;2.50;;
19897;SDS011;10111;50.814;4.572;2023-06-04T02:49:10;3.70;;;2.40;;
19897;SDS011;10111;50.814;4.572;2023-06-04T02:51:40;3.73;;;2.10;;
19897;SDS011;10111;50.814;4.572;2023-06-04T02:54:06;3.00;;;1.90;;
19897;SDS011;10111;50.814;4.572;2023-06-04T02:56:31;4.00;;;2.30;;
19897;SDS011;10111;50.814;4.572;2023-06-04T02:58:58;3.67;;;2.00;;
19897;SDS011;10111;50.814;4.572;2023-06-04T03:01:24;4.33;;;2.37;;
19897;SDS011;10111;50.814;4.572;2023-06-04T03:03:51;3.33;;;2.60;;
19897;SDS011;10111;50.814;4.572;2023-06-04T03:06:18;1.97;;;1.70;;
19897;SDS011;10111;50.814;4.572;2023-06-04T03:08:48;4.63;;;2.47;;
19897;SDS011;10111;50.814;4.572;2023-06-04T03:11:17;3.37;;;2.40;;
19897;SDS011;10111;50.814;4.572;2023-06-04T03:13:45;2.50;;;2.03;;
19897;SDS011;10111;50.814;4.572;2023-06-04T03:16:11;2.33;;;2.10;;
19897;SDS011;10111;50.814;4.572;2023-06-04T03:18:38;4.10;;;2.40;;
19897;SDS011;10111;50.814;4.572;2023-06-04T03:21:07;3.23;;;2.00;;
19897;SDS011;10111;50.814;4.572;2023-06-04T03:23:34;5.47;;;2.33;;
19897;SDS011;10111;50.814;4.572;2023-06-04T03:26:01;3.33;;;2.10;;
19897;SDS011;10111;50.814;4.572;2023-06-04T03:28:27;3.37;;;2.30;;
19897;SDS011;10111;50.814;4.572;2023-06-04T03:30:53;2.60;;;2.33;;
19897;SDS011;10111;50.814;4.572;2023-06-04T03:33:18;5.30;;;2.50;;
19897;SDS011;10111;50.814;4.572;2023-06-04T03:35:44;4.37;;;2.47;;
19897;SDS011;10111;50.814;4.572;2023-06-04T03:38:10;4.40;;;2.30;;
19897;SDS011;10111;50.814;4.572;2023-06-04T03:40:36;3.17;;;2.77;;
19897;SDS011;10111;50.814;4.572;2023-06-04T03:43:02;3.17;;;2.27;;
19897;SDS011;10111;50.814;4.572;2023-06-04T03:45:29;6.20;;;2.20;;
19897;SDS011;10111;50.814;4.572;2023-06-04T03:47:55;3.27;;;2.47;;
19897;SDS011;10111;50.814;4.572;2023-06-04T03:50:21;5.87;;;2.43;;
19897;SDS011;10111;50.814;4.572;2023-06-04T03:52:50;3.17;;;2.30;;
19897;SDS011;10111;50.814;4.572;2023-06-04T03:55:15;4.17;;;2.00;;
19897;SDS011;10111;50.814;4.572;2023-06-04T03:57:41;4.03;;;2.13;;
19897;SDS011;10111;50.814;4.572;2023-06-04T04:00:08;5.87;;;2.13;;
19897;SDS011;10111;50.814;4.572;2023-06-04T04:02:38;5.50;;;2.57;;
19897;SDS011;10111;50.814;4.572;2023-06-04T04:05:06;2.03;;;1.80;;
19897;SDS011;10111;50.814;4.572;2023-06-04T04:07:32;2.40;;;2.17;;
19897;SDS011;10111;50.814;4.572;2023-06-04T04:09:58;3.67;;;1.83;;
19897;SDS011;10111;50.814;4.572;2023-06-04T04:12:24;4.97;;;2.30;;
19897;SDS011;10111;50.814;4.572;2023-06-04T04:14:49;2.97;;;2.67;;
19897;SDS011;10111;50.814;4.572;2023-06-04T04:17:16;5.10;;;2.33;;
19897;SDS011;10111;50.814;4.572;2023-06-04T04:19:41;2.97;;;2.03;;
19897;SDS011;10111;50.814;4.572;2023-06-04T04:22:07;6.07;;;3.20;;
19897;SDS011;10111;50.814;4.572;2023-06-04T04:24:34;6.40;;;2.60;;
19897;SDS011;10111;50.814;4.572;2023-06-04T04:27:02;3.67;;;2.30;;
19897;SDS011;10111;50.814;4.572;2023-06-04T04:29:29;2.80;;;2.50;;
19897;SDS011;10111;50.814;4.572;2023-06-04T04:31:57;3.07;;;2.50;;
19897;SDS011;10111;50.814;4.572;2023-06-04T04:34:26;2.53;;;1.87;;
19897;SDS011;10111;50.814;4.572;2023-06-04T04:36:52;4.33;;;2.70;;
19897;SDS011;10111;50.814;4.572;2023-06-04T04:39:19;3.93;;;2.27;;
19897;SDS011;10111;50.814;4.572;2023-06-04T04:41:46;3.87;;;2.10;;
19897;SDS011;10111;50.814;4.572;2023-06-04T04:44:12;3.07;;;2.20;;
19897;SDS011;10111;50.814;4.572;2023-06-04T04:46:38;2.30;;;2.10;;
19897;SDS011;10111;50.814;4.572;2023-06-04T04:49:03;6.93;;;2.70;;
19897;SDS011;10111;50.814;4.572;2023-06-04T04:51:29;4.03;;;2.20;;
19897;SDS011;10111;50.814;4.572;2023-06-04T04:53:55;5.20;;;2.00;;
19897;SDS011;10111;50.814;4.572;2023-06-04T04:56:20;2.53;;;2.27;;
19897;SDS011;10111;50.814;4.572;2023-06-04T04:58:47;5.90;;;2.63;;
19897;SDS011;10111;50.814;4.572;2023-06-04T05:01:13;5.47;;;2.70;;
19897;SDS011;10111;50.814;4.572;2023-06-04T05:03:39;3.03;;;2.57;;
19897;SDS011;10111;50.814;4.572;2023-06-04T05:06:05;2.13;;;1.93;;
19897;SDS011;10111;50.814;4.572;2023-06-04T05:08:30;5.30;;;2.40;;
19897;SDS011;10111;50.814;4.572;2023-06-04T05:10:56;3.83;;;2.90;;
19897;SDS011;10111;50.814;4.572;2023-06-04T05:13:22;3.93;;;2.47;;
19897;SDS011;10111;50.814;4.572;2023-06-04T05:15:48;2.87;;;2.37;;
19897;SDS011;10111;50.814;4.572;2023-06-04T05:18:17;3.23;;;2.47;;
19897;SDS011;10111;50.814;4.572;2023-06-04T05:20:47;3.27;;;2.10;;
19897;SDS011;10111;50.814;4.572;2023-06-04T05:23:12;4.63;;;2.50;;
19897;SDS011;10111;50.814;4.572;2023-06-04T05:25:39;2.70;;;2.00;;
19897;SDS011;10111;50.814;4.572;2023-06-04T05:28:05;2.87;;;2.13;;
19897;SDS011;10111;50.814;4.572;2023-06-04T05:30:32;3.00;;;2.40;;
19897;SDS011;10111;50.814;4.572;2023-06-04T05:32:58;5.47;;;2.77;;
19897;SDS011;10111;50.814;4.572;2023-06-04T05:35:24;5.80;;;2.90;;
19897;SDS011;10111;50.814;4.572;2023-06-04T05:37:50;3.23;;;2.63;;
19897;SDS011;10111;50.814;4.572;2023-06-04T05:40:22;8.23;;;3.00;;
19897;SDS011;10111;50.814;4.572;2023-06-04T05:42:48;3.03;;;2.40;;
19897;SDS011;10111;50.814;4.572;2023-06-04T05:45:14;3.93;;;2.03;;
19897;SDS011;10111;50.814;4.572;2023-06-04T05:47:39;2.67;;;2.37;;
19897;SDS011;10111;50.814;4.572;2023-06-04T05:50:05;3.50;;;2.57;;
19897;SDS011;10111;50.814;4.572;2023-06-04T05:52:32;4.13;;;2.30;;
19897;SDS011;10111;50.814;4.572;2023-06-04T05:54:59;3.87;;;2.60;;
19897;SDS011;10111;50.814;4.572;2023-06-04T05:57:25;2.40;;;2.17;;
19897;SDS011;10111;50.814;4.572;2023-06-04T05:59:50;3.53;;;2.47;;
19897;SDS011;10111;50.814;4.572;2023-06-04T06:02:16;4.77;;;2.37;;
19897;SDS011;10111;50.814;4.572;2023-06-04T06:04:42;3.40;;;2.23;;
19897;SDS011;10111;50.814;4.572;2023-06-04T06:07:08;3.33;;;2.23;;
19897;SDS011;10111;50.814;4.572;2023-06-04T06:09:33;4.13;;;2.53;;
19897;SDS011;10111;50.814;4.572;2023-06-04T06:12:00;2.77;;;2.23;;
19897;SDS011;10111;50.814;4.572;2023-06-04T06:14:26;4.40;;;2.53;;
19897;SDS011;10111;50.814;4.572;2023-06-04T06:16:51;4.83;;;2.40;;
19897;SDS011;10111;50.814;4.572;2023-06-04T06:19:18;3.80;;;2.27;;
19897;SDS011;10111;50.814;4.572;2023-06-04T06:21:43;2.30;;;1.97;;
19897;SDS011;10111;50.814;4.572;2023-06-04T06:24:09;3.37;;;2.77;;
19897;SDS011;10111;50.814;4.572;2023-06-04T06:26:35;2.83;;;2.30;;
19897;SDS011;10111;50.814;4.572;2023-06-04T06:29:02;3.97;;;2.20;;
19897;SDS011;10111;50.814;4.572;2023-06-04T06:31:27;3.23;;;1.97;;
19897;SDS011;10111;50.814;4.572;2023-06-04T06:33:53;5.40;;;2.60;;
19897;SDS011;10111;50.814;4.572;2023-06-04T06:36:19;2.60;;;2.30;;
19897;SDS011;10111;50.814;4.572;2023-06-04T06:38:45;5.27;;;2.30;;
19897;SDS011;10111;50.814;4.572;2023-06-04T06:41:11;5.63;;;2.23;;
19897;SDS011;10111;50.814;4.572;2023-06-04T06:43:37;4.97;;;2.27;;
19897;SDS011;10111;50.814;4.572;2023-06-04T06:46:02;2.53;;;2.10;;
19897;SDS011;10111;50.814;4.572;2023-06-04T06:48:28;3.70;;;2.33;;
19897;SDS011;10111;50.814;4.572;2023-06-04T06:50:54;4.03;;;2.10;;
19897;SDS011;10111;50.814;4.572;2023-06-04T06:53:20;3.47;;;2.60;;
19897;SDS011;10111;50.814;4.572;2023-06-04T06:55:46;2.33;;;2.10;;
19897;SDS011;10111;50.814;4.572;2023-06-04T06:58:11;2.20;;;2.00;;
19897;SDS011;10111;50.814;4.572;2023-06-04T07:00:37;5.43;;;2.70;;
19897;SDS011;10111;50.814;4.572;2023-06-04T07:03:03;5.13;;;2.73;;
19897;SDS011;10111;50.814;4.572;2023-06-04T07:05:29;3.23;;;2.40;;
19897;SDS011;10111;50.814;4.572;2023-06-04T07:07:55;4.53;;;2.10;;
19897;SDS011;10111;50.814;4.572;2023-06-04T07:10:22;4.30;;;2.23;;
19897;SDS011;10111;50.814;4.572;2023-06-04T07:12:48;2.30;;;2.10;;
19897;SDS011;10111;50.814;4.572;2023-06-04T07:15:14;1.93;;;1.63;;
19897;SDS011;10111;50.814;4.572;2023-06-04T07:17:39;4.97;;;2.00;;
19897;SDS011;10111;50.814;4.572;2023-06-04T07:20:05;3.03;;;2.07;;
19897;SDS011;10111;50.814;4.572;2023-06-04T07:22:34;4.07;;;2.00;;
19897;SDS011;10111;50.814;4.572;2023-06-04T07:25:00;7.37;;;2.43;;
19897;SDS011;10111;50.814;4.572;2023-06-04T07:27:26;2.10;;;1.80;;
19897;SDS011;10111;50.814;4.572;2023-06-04T07:29:52;2.47;;;1.90;;
19897;SDS011;10111;50.814;4.572;2023-06-04T07:32:18;4.93;;;1.70;;
19897;SDS011;10111;50.814;4.572;2023-06-04T07:34:43;3.63;;;1.80;;
19897;SDS011;10111;50.814;4.572;2023-06-04T07:37:09;2.20;;;1.63;;
19897;SDS011;10111;50.814;4.572;2023-06-04T07:39:35;3.10;;;2.00;;
19897;SDS011;10111;50.814;4.572;2023-06-04T07:42:01;3.37;;;1.60;;
19897;SDS011;10111;50.814;4.572;2023-06-04T07:44:27;1.70;;;1.60;;
19897;SDS011;10111;50.814;4.572;2023-06-04T07:46:53;5.37;;;1.57;;
19897;SDS011;10111;50.814;4.572;2023-06-04T07:49:18;1.90;;;1.73;;
19897;SDS011;10111;50.814;4.572;2023-06-04T07:51:45;3.60;;;1.40;;
19897;SDS011;10111;50.814;4.572;2023-06-04T07:54:11;3.67;;;2.00;;
19897;SDS011;10111;50.814;4.572;2023-06-04T07:56:39;3.27;;;2.07;;
19897;SDS011;10111;50.814;4.572;2023-06-04T07:59:05;3.63;;;2.00;;
19897;SDS011;10111;50.814;4.572;2023-06-04T08:01:30;2.40;;;1.90;;
19897;SDS011;10111;50.814;4.572;2023-06-04T08:03:56;3.23;;;1.70;;
19897;SDS011;10111;50.814;4.572;2023-06-04T08:06:23;2.20;;;1.77;;
19897;SDS011;10111;50.814;4.572;2023-06-04T08:08:51;2.40;;;1.60;;
19897;SDS011;10111;50.814;4.572;2023-06-04T08:11:17;2.53;;;1.60;;
19897;SDS011;10111;50.814;4.572;2023-06-04T08:13:43;2.03;;;1.77;;
19897;SDS011;10111;50.814;4.572;2023-06-04T08:16:09;1.73;;;1.50;;
19897;SDS011;10111;50.814;4.572;2023-06-04T08:18:38;1.47;;;1.27;;
19897;SDS011;10111;50.814;4.572;2023-06-04T08:21:05;2.30;;;1.77;;
19897;SDS011;10111;50.814;4.572;2023-06-04T08:23:32;1.60;;;1.47;;
19897;SDS011;10111;50.814;4.572;2023-06-04T08:25:57;2.87;;;1.43;;
19897;SDS011;10111;50.814;4.572;2023-06-04T08:28:24;2.37;;;1.63;;
19897;SDS011;10111;50.814;4.572;2023-06-04T08:30:49;2.90;;;1.50;;
19897;SDS011;10111;50.814;4.572;2023-06-04T08:33:15;1.70;;;1.60;;
19897;SDS011;10111;50.814;4.572;2023-06-04T08:35:40;2.70;;;1.50;;
19897;SDS011;10111;50.814;4.572;2023-06-04T08:38:06;2.97;;;1.47;;
19897;SDS011;10111;50.814;4.572;2023-06-04T08:40:32;1.93;;;1.57;;
19897;SDS011;10111;50.814;4.572;2023-06-04T08:42:59;1.37;;;1.27;;
19897;SDS011;10111;50.814;4.572;2023-06-04T08:45:26;2.13;;;1.50;;
19897;SDS011;10111;50.814;4.572;2023-06-04T08:47:52;2.87;;;1.50;;
19897;SDS011;10111;50.814;4.572;2023-06-04T08:50:23;2.10;;;1.80;;
19897;SDS011;10111;50.814;4.572;2023-06-04T08:52:53;1.60;;;1.07;;
19897;SDS011;10111;50.814;4.572;2023-06-04T08:55:19;1.60;;;1.33;;
19897;SDS011;10111;50.814;4.572;2023-06-04T08:57:45;1.73;;;1.40;;
19897;SDS011;10111;50.814;4.572;2023-06-04T09:00:14;2.70;;;1.60;;
19897;SDS011;10111;50.814;4.572;2023-06-04T09:02:40;4.20;;;1.80;;
19897;SDS011;10111;50.814;4.572;2023-06-04T09:05:06;2.90;;;2.10;;
19897;SDS011;10111;50.814;4.572;2023-06-04T09:07:36;2.97;;;1.27;;
19897;SDS011;10111;50.814;4.572;2023-06-04T09:10:04;2.73;;;1.60;;
19897;SDS011;10111;50.814;4.572;2023-06-04T09:12:31;4.07;;;1.50;;
19897;SDS011;10111;50.814;4.572;2023-06-04T09:15:00;3.53;;;1.87;;
19897;SDS011;10111;50.814;4.572;2023-06-04T09:17:27;2.73;;;1.60;;
19897;SDS011;10111;50.814;4.572;2023-06-04T09:19:53;1.47;;;1.27;;
19897;SDS011;10111;50.814;4.572;2023-06-04T09:22:19;2.20;;;1.30;;
19897;SDS011;10111;50.814;4.572;2023-06-04T09:24:45;4.23;;;2.20;;
19897;SDS011;10111;50.814;4.572;2023-06-04T09:27:14;4.50;;;2.37;;
19897;SDS011;10111;50.814;4.572;2023-06-04T09:29:50;1.60;;;1.47;;
19897;SDS011;10111;50.814;4.572;2023-06-04T09:32:26;2.97;;;1.40;;
19897;SDS011;10111;50.814;4.572;2023-06-04T09:34:53;4.63;;;1.73;;
19897;SDS011;10111;50.814;4.572;2023-06-04T09:37:19;2.17;;;1.53;;
19897;SDS011;10111;50.814;4.572;2023-06-04T09:39:57;2.57;;;1.20;;
19897;SDS011;10111;50.814;4.572;2023-06-04T09:42:23;2.43;;;1.50;;
19897;SDS011;10111;50.814;4.572;2023-06-04T09:44:49;2.10;;;1.77;;
19897;SDS011;10111;50.814;4.572;2023-06-04T09:47:15;3.13;;;1.80;;
19897;SDS011;10111;50.814;4.572;2023-06-04T09:49:45;2.57;;;1.67;;
19897;SDS011;10111;50.814;4.572;2023-06-04T09:52:11;5.53;;;1.80;;
19897;SDS011;10111;50.814;4.572;2023-06-04T09:54:38;3.70;;;1.83;;
19897;SDS011;10111;50.814;4.572;2023-06-04T09:57:13;2.07;;;1.40;;
19897;SDS011;10111;50.814;4.572;2023-06-04T09:59:49;2.00;;;1.47;;
19897;SDS011;10111;50.814;4.572;2023-06-04T10:02:19;2.30;;;1.80;;
19897;SDS011;10111;50.814;4.572;2023-06-04T10:04:48;2.93;;;1.37;;
19897;SDS011;10111;50.814;4.572;2023-06-04T10:07:19;2.33;;;1.83;;
19897;SDS011;10111;50.814;4.572;2023-06-04T10:09:47;1.93;;;1.50;;
19897;SDS011;10111;50.814;4.572;2023-06-04T10:12:14;3.17;;;1.87;;
19897;SDS011;10111;50.814;4.572;2023-06-04T10:14:45;3.40;;;1.73;;
19897;SDS011;10111;50.814;4.572;2023-06-04T10:17:17;2.63;;;1.50;;
19897;SDS011;10111;50.814;4.572;2023-06-04T10:19:46;3.00;;;1.50;;
19897;SDS011;10111;50.814;4.572;2023-06-04T10:22:14;2.77;;;1.67;;
19897;SDS011;10111;50.814;4.572;2023-06-04T10:24:40;3.33;;;1.73;;
19897;SDS011;10111;50.814;4.572;2023-06-04T10:27:05;1.83;;;1.30;;
19897;SDS011;10111;50.814;4.572;2023-06-04T10:29:36;4.67;;;1.37;;
19897;SDS011;10111;50.814;4.572;2023-06-04T10:32:02;3.03;;;1.40;;
19897;SDS011;10111;50.814;4.572;2023-06-04T10:34:28;3.40;;;1.60;;
19897;SDS011;10111;50.814;4.572;2023-06-04T10:36:54;1.70;;;1.60;;
19897;SDS011;10111;50.814;4.572;2023-06-04T10:39:27;5.80;;;2.03;;
19897;SDS011;10111;50.814;4.572;2023-06-04T10:41:57;2.80;;;1.40;;
19897;SDS011;10111;50.814;4.572;2023-06-04T10:44:23;6.53;;;1.60;;
19897;SDS011;10111;50.814;4.572;2023-06-04T10:46:49;1.17;;;1.00;;
19897;SDS011;10111;50.814;4.572;2023-06-04T10:49:25;1.43;;;1.33;;
19897;SDS011;10111;50.814;4.572;2023-06-04T10:51:52;2.07;;;1.33;;
19897;SDS011;10111;50.814;4.572;2023-06-04T10:54:24;3.57;;;1.40;;
19897;SDS011;10111;50.814;4.572;2023-06-04T10:56:51;1.60;;;1.30;;
19897;SDS011;10111;50.814;4.572;2023-06-04T10:59:17;2.00;;;1.40;;
19897;SDS011;10111;50.814;4.572;2023-06-04T11:01:44;1.53;;;1.10;;
19897;SDS011;10111;50.814;4.572;2023-06-04T11:04:23;1.73;;;1.40;;
19897;SDS011;10111;50.814;4.572;2023-06-04T11:07:06;2.20;;;1.83;;
19897;SDS011;10111;50.814;4.572;2023-06-04T11:09:36;2.63;;;1.60;;
19897;SDS011;10111;50.814;4.572;2023-06-04T11:12:14;1.73;;;1.30;;
19897;SDS011;10111;50.814;4.572;2023-06-04T11:14:40;1.77;;;1.50;;
19897;SDS011;10111;50.814;4.572;2023-06-04T11:17:09;2.73;;;1.17;;
19897;SDS011;10111;50.814;4.572;2023-06-04T11:19:36;2.00;;;1.20;;
19897;SDS011;10111;50.814;4.572;2023-06-04T11:22:03;2.13;;;1.60;;
19897;SDS011;10111;50.814;4.572;2023-06-04T11:24:29;2.50;;;1.87;;
19897;SDS011;10111;50.814;4.572;2023-06-04T11:26:56;2.37;;;1.43;;
19897;SDS011;10111;50.814;4.572;2023-06-04T11:29:25;2.23;;;1.40;;
19897;SDS011;10111;50.814;4.572;2023-06-04T11:31:50;1.40;;;1.30;;
19897;SDS011;10111;50.814;4.572;2023-06-04T11:34:26;2.40;;;1.43;;
19897;SDS011;10111;50.814;4.572;2023-06-04T11:36:53;2.17;;;1.20;;
19897;SDS011;10111;50.814;4.572;2023-06-04T11:39:20;5.37;;;1.40;;
19897;SDS011;10111;50.814;4.572;2023-06-04T11:41:47;1.30;;;1.20;;
19897;SDS011;10111;50.814;4.572;2023-06-04T11:44:13;5.40;;;2.13;;
19897;SDS011;10111;50.814;4.572;2023-06-04T11:46:40;2.80;;;1.70;;
19897;SDS011;10111;50.814;4.572;2023-06-04T11:49:10;4.37;;;1.50;;
19897;SDS011;10111;50.814;4.572;2023-06-04T11:51:38;3.60;;;1.40;;
19897;SDS011;10111;50.814;4.572;2023-06-04T11:54:09;4.20;;;1.63;;
19897;SDS011;10111;50.814;4.572;2023-06-04T11:56:35;4.30;;;2.37;;
19897;SDS011;10111;50.814;4.572;2023-06-04T11:59:01;4.70;;;1.23;;
19897;SDS011;10111;50.814;4.572;2023-06-04T12:01:27;2.63;;;1.57;;
19897;SDS011;10111;50.814;4.572;2023-06-04T12:03:55;3.57;;;1.63;;
19897;SDS011;10111;50.814;4.572;2023-06-04T12:06:21;3.33;;;1.90;;
19897;SDS011;10111;50.814;4.572;2023-06-04T12:08:50;1.63;;;1.43;;
19897;SDS011;10111;50.814;4.572;2023-06-04T12:13:58;3.13;;;1.70;;
19897;SDS011;10111;50.814;4.572;2023-06-04T12:16:25;3.47;;;2.27;;
19897;SDS011;10111;50.814;4.572;2023-06-04T12:18:51;4.33;;;1.50;;
19897;SDS011;10111;50.814;4.572;2023-06-04T12:21:20;2.53;;;1.70;;
19897;SDS011;10111;50.814;4.572;2023-06-04T12:23:52;4.10;;;1.30;;
19897;SDS011;10111;50.814;4.572;2023-06-04T12:26:38;2.70;;;1.57;;
19897;SDS011;10111;50.814;4.572;2023-06-04T12:29:12;1.83;;;1.60;;
19897;SDS011;10111;50.814;4.572;2023-06-04T12:31:39;2.03;;;1.30;;
19897;SDS011;10111;50.814;4.572;2023-06-04T12:34:06;3.40;;;1.70;;
19897;SDS011;10111;50.814;4.572;2023-06-04T12:36:32;5.03;;;1.43;;
19897;SDS011;10111;50.814;4.572;2023-06-04T12:39:03;1.73;;;1.30;;
19897;SDS011;10111;50.814;4.572;2023-06-04T12:41:33;2.17;;;1.20;;
19897;SDS011;10111;50.814;4.572;2023-06-04T12:43:59;2.13;;;1.30;;
19897;SDS011;10111;50.814;4.572;2023-06-04T12:46:25;4.00;;;1.80;;
19897;SDS011;10111;50.814;4.572;2023-06-04T12:48:51;2.83;;;2.00;;
19897;SDS011;10111;50.814;4.572;2023-06-04T12:51:19;1.80;;;1.60;;
19897;SDS011;10111;50.814;4.572;2023-06-04T12:53:45;2.57;;;1.47;;
19897;SDS011;10111;50.814;4.572;2023-06-04T12:56:12;4.37;;;1.60;;
19897;SDS011;10111;50.814;4.572;2023-06-04T12:58:37;2.40;;;1.50;;
19897;SDS011;10111;50.814;4.572;2023-06-04T13:01:03;1.53;;;1.10;;
19897;SDS011;10111;50.814;4.572;2023-06-04T13:03:30;1.73;;;1.60;;
19897;SDS011;10111;50.814;4.572;2023-06-04T13:05:56;1.70;;;1.40;;
19897;SDS011;10111;50.814;4.572;2023-06-04T13:08:22;2.63;;;2.27;;
19897;SDS011;10111;50.814;4.572;2023-06-04T13:10:49;2.00;;;1.30;;
19897;SDS011;10111;50.814;4.572;2023-06-04T13:13:16;1.93;;;1.60;;
19897;SDS011;10111;50.814;4.572;2023-06-04T13:15:45;3.57;;;1.70;;
19897;SDS011;10111;50.814;4.572;2023-06-04T13:18:11;5.80;;;2.77;;
19897;SDS011;10111;50.814;4.572;2023-06-04T13:20:37;3.33;;;1.40;;
19897;SDS011;10111;50.814;4.572;2023-06-04T13:23:05;3.33;;;1.30;;
19897;SDS011;10111;50.814;4.572;2023-06-04T13:25:31;1.83;;;1.57;;
19897;SDS011;10111;50.814;4.572;2023-06-04T13:28:01;4.87;;;2.03;;
19897;SDS011;10111;50.814;4.572;2023-06-04T13:30:28;4.03;;;2.27;;
19897;SDS011;10111;50.814;4.572;2023-06-04T13:32:54;4.67;;;1.40;;
19897;SDS011;10111;50.814;4.572;2023-06-04T13:35:20;1.90;;;1.53;;
19897;SDS011;10111;50.814;4.572;2023-06-04T13:37:45;6.23;;;1.77;;
19897;SDS011;10111;50.814;4.572;2023-06-04T13:40:11;1.70;;;1.23;;
19897;SDS011;10111;50.814;4.572;2023-06-04T13:42:38;4.03;;;1.23;;
19897;SDS011;10111;50.814;4.572;2023-06-04T13:45:03;2.53;;;1.60;;
19897;SDS011;10111;50.814;4.572;2023-06-04T13:47:29;5.13;;;1.40;;
19897;SDS011;10111;50.814;4.572;2023-06-04T13:49:57;2.87;;;1.60;;
19897;SDS011;10111;50.814;4.572;2023-06-04T13:52:22;3.47;;;1.63;;
19897;SDS011;10111;50.814;4.572;2023-06-04T13:54:48;6.50;;;1.80;;
19897;SDS011;10111;50.814;4.572;2023-06-04T13:57:14;2.90;;;1.43;;
19897;SDS011;10111;50.814;4.572;2023-06-04T13:59:39;1.87;;;1.60;;
19897;SDS011;10111;50.814;4.572;2023-06-04T14:02:05;2.77;;;1.73;;
19897;SDS011;10111;50.814;4.572;2023-06-04T14:04:32;3.70;;;2.20;;
19897;SDS011;10111;50.814;4.572;2023-06-04T14:06:58;2.97;;;1.57;;
19897;SDS011;10111;50.814;4.572;2023-06-04T14:09:24;2.70;;;1.20;;
19897;SDS011;10111;50.814;4.572;2023-06-04T14:11:49;1.23;;;1.00;;
19897;SDS011;10111;50.814;4.572;2023-06-04T14:14:19;2.90;;;1.57;;
19897;SDS011;10111;50.814;4.572;2023-06-04T14:16:46;2.23;;;1.47;;
19897;SDS011;10111;50.814;4.572;2023-06-04T14:19:13;3.13;;;1.60;;
19897;SDS011;10111;50.814;4.572;2023-06-04T14:21:39;1.93;;;1.40;;
19897;SDS011;10111;50.814;4.572;2023-06-04T14:24:08;2.00;;;1.40;;
19897;SDS011;10111;50.814;4.572;2023-06-04T14:26:34;2.23;;;1.43;;
19897;SDS011;10111;50.814;4.572;2023-06-04T14:29:00;3.70;;;1.93;;
19897;SDS011;10111;50.814;4.572;2023-06-04T14:31:26;3.37;;;1.37;;
19897;SDS011;10111;50.814;4.572;2023-06-04T14:33:52;1.33;;;1.20;;
19897;SDS011;10111;50.814;4.572;2023-06-04T14:36:18;2.73;;;1.87;;
19897;SDS011;10111;50.814;4.572;2023-06-04T14:38:43;1.77;;;1.20;;
19897;SDS011;10111;50.814;4.572;2023-06-04T14:41:09;6.17;;;1.70;;
19897;SDS011;10111;50.814;4.572;2023-06-04T14:43:35;1.80;;;1.33;;
19897;SDS011;10111;50.814;4.572;2023-06-04T14:46:01;4.17;;;2.27;;
19897;SDS011;10111;50.814;4.572;2023-06-04T14:48:27;1.37;;;1.20;;
19897;SDS011;10111;50.814;4.572;2023-06-04T14:50:52;1.90;;;1.30;;
19897;SDS011;10111;50.814;4.572;2023-06-04T14:53:19;3.43;;;1.30;;
19897;SDS011;10111;50.814;4.572;2023-06-04T14:55:45;1.63;;;1.43;;